Terminal Aerodrome Forecast
Issued by NWS

Home | Current Version | Previous Version | Text Only | Print | Product List | Glossary On
Versions: 1 2 3 4 5 6 7 8 9 10 11 12 13
723
FTUS43 KPAH 111140
TAFCGI
TAF
KCGI 111140Z 1112/1212 18012G19KT P6SM OVC050
     FM111800 19013G20KT P6SM VCSH OVC035
     FM112100 19009KT P6SM -SHRA OVC025
     FM120000 20008KT 3SM SHRA BR OVC009
     FM120400 25007KT 5SM -RA BR OVC005
     FM120800 32007KT P6SM OVC012=

USA.gov is the U.S. government's official web portal to all federal, state and local government web resources and services.